Terminal Aerodrome Forecast
Issued by NWS Mt. Holly, NJ

Current Version | Previous Version | Text Only | Print | Product List | Glossary On
Versions: 1 2 3 4 5 6 7 8 9 10 11 12 13 14 15 16 17 18 19 20 21 22 23
000
FTUS41 KPHI 230500
TAFILG
TAF
KILG 230532Z 2306/2406 06006KT P6SM SCT025 BKN060
     FM230800 06006KT P6SM OVC025
     FM231000 07008KT 6SM BR OVC012
     FM231300 10009KT P6SM OVC020
     FM231700 09010KT P6SM SCT025 BKN050
     FM240500 03006KT P6SM SCT050 SCT120=

USA.gov is the U.S. government's official web portal to all federal, state and local government web resources and services.